sensor_id;sensor_type;location;lat;lon;timestamp;P1;durP1;ratioP1;P2;durP2;ratioP2
18818;SDS011;9537;45.594;9.294;2023-04-24T00:01:03;4.53;;;4.13;;
18818;SDS011;9537;45.594;9.294;2023-04-24T00:02:12;5.13;;;4.30;;
18818;SDS011;9537;45.594;9.294;2023-04-24T00:03:19;6.00;;;4.53;;
18818;SDS011;9537;45.594;9.294;2023-04-24T00:04:26;5.37;;;4.00;;
18818;SDS011;9537;45.594;9.294;2023-04-24T00:05:33;4.87;;;4.10;;
18818;SDS011;9537;45.594;9.294;2023-04-24T00:06:39;6.17;;;4.33;;
18818;SDS011;9537;45.594;9.294;2023-04-24T00:07:48;6.77;;;4.50;;
18818;SDS011;9537;45.594;9.294;2023-04-24T00:08:53;5.40;;;4.47;;
18818;SDS011;9537;45.594;9.294;2023-04-24T00:10:00;5.93;;;4.60;;
18818;SDS011;9537;45.594;9.294;2023-04-24T00:11:07;5.47;;;4.03;;
18818;SDS011;9537;45.594;9.294;2023-04-24T00:12:14;6.73;;;4.37;;
18818;SDS011;9537;45.594;9.294;2023-04-24T00:13:20;6.60;;;4.50;;
18818;SDS011;9537;45.594;9.294;2023-04-24T00:14:27;8.70;;;4.90;;
18818;SDS011;9537;45.594;9.294;2023-04-24T00:15:35;6.00;;;4.50;;
18818;SDS011;9537;45.594;9.294;2023-04-24T00:16:42;6.53;;;5.03;;
18818;SDS011;9537;45.594;9.294;2023-04-24T00:17:48;7.37;;;4.63;;
18818;SDS011;9537;45.594;9.294;2023-04-24T00:18:55;5.80;;;5.20;;
18818;SDS011;9537;45.594;9.294;2023-04-24T00:20:00;5.77;;;4.70;;
18818;SDS011;9537;45.594;9.294;2023-04-24T00:21:09;5.67;;;4.80;;
18818;SDS011;9537;45.594;9.294;2023-04-24T00:22:16;5.43;;;4.87;;
18818;SDS011;9537;45.594;9.294;2023-04-24T00:23:23;6.40;;;4.90;;
18818;SDS011;9537;45.594;9.294;2023-04-24T00:24:29;5.67;;;4.83;;
18818;SDS011;9537;45.594;9.294;2023-04-24T00:25:36;5.90;;;4.57;;
18818;SDS011;9537;45.594;9.294;2023-04-24T00:26:42;5.40;;;4.60;;
18818;SDS011;9537;45.594;9.294;2023-04-24T00:27:49;5.00;;;4.27;;
18818;SDS011;9537;45.594;9.294;2023-04-24T00:28:56;6.10;;;5.07;;
18818;SDS011;9537;45.594;9.294;2023-04-24T00:30:03;5.03;;;4.33;;
18818;SDS011;9537;45.594;9.294;2023-04-24T00:31:11;5.30;;;4.60;;
18818;SDS011;9537;45.594;9.294;2023-04-24T00:32:18;6.73;;;4.90;;
18818;SDS011;9537;45.594;9.294;2023-04-24T00:33:24;5.00;;;4.50;;
18818;SDS011;9537;45.594;9.294;2023-04-24T00:34:31;5.10;;;4.60;;
18818;SDS011;9537;45.594;9.294;2023-04-24T00:35:37;6.20;;;4.80;;
18818;SDS011;9537;45.594;9.294;2023-04-24T00:36:45;6.47;;;5.33;;
18818;SDS011;9537;45.594;9.294;2023-04-24T00:37:51;6.80;;;5.53;;
18818;SDS011;9537;45.594;9.294;2023-04-24T00:38:58;6.87;;;5.53;;
18818;SDS011;9537;45.594;9.294;2023-04-24T00:40:04;6.00;;;5.40;;
18818;SDS011;9537;45.594;9.294;2023-04-24T00:41:12;6.97;;;5.43;;
18818;SDS011;9537;45.594;9.294;2023-04-24T00:42:18;7.43;;;5.50;;
18818;SDS011;9537;45.594;9.294;2023-04-24T00:43:25;7.77;;;5.47;;
18818;SDS011;9537;45.594;9.294;2023-04-24T00:44:27;7.63;;;6.00;;
18818;SDS011;9537;45.594;9.294;2023-04-24T00:45:34;7.87;;;5.73;;
18818;SDS011;9537;45.594;9.294;2023-04-24T00:46:41;7.47;;;5.63;;
18818;SDS011;9537;45.594;9.294;2023-04-24T00:47:49;7.10;;;5.57;;
18818;SDS011;9537;45.594;9.294;2023-04-24T00:48:52;7.60;;;5.53;;
18818;SDS011;9537;45.594;9.294;2023-04-24T00:50:00;6.53;;;5.60;;
18818;SDS011;9537;45.594;9.294;2023-04-24T00:51:07;6.93;;;5.83;;
18818;SDS011;9537;45.594;9.294;2023-04-24T00:52:14;7.53;;;5.83;;
18818;SDS011;9537;45.594;9.294;2023-04-24T00:53:23;8.23;;;5.60;;
18818;SDS011;9537;45.594;9.294;2023-04-24T00:54:30;8.10;;;5.40;;
18818;SDS011;9537;45.594;9.294;2023-04-24T00:55:35;7.13;;;5.77;;
18818;SDS011;9537;45.594;9.294;2023-04-24T00:56:43;6.50;;;5.77;;
18818;SDS011;9537;45.594;9.294;2023-04-24T00:57:50;9.57;;;5.57;;
18818;SDS011;9537;45.594;9.294;2023-04-24T00:58:57;8.43;;;5.80;;
18818;SDS011;9537;45.594;9.294;2023-04-24T01:00:05;7.60;;;5.33;;
18818;SDS011;9537;45.594;9.294;2023-04-24T01:01:16;7.20;;;5.70;;
18818;SDS011;9537;45.594;9.294;2023-04-24T01:02:24;6.70;;;5.63;;
18818;SDS011;9537;45.594;9.294;2023-04-24T01:03:28;9.40;;;4.97;;
18818;SDS011;9537;45.594;9.294;2023-04-24T01:04:35;8.87;;;5.30;;
18818;SDS011;9537;45.594;9.294;2023-04-24T01:05:43;7.33;;;5.10;;
18818;SDS011;9537;45.594;9.294;2023-04-24T01:06:49;5.93;;;5.10;;
18818;SDS011;9537;45.594;9.294;2023-04-24T01:07:57;5.83;;;5.23;;
18818;SDS011;9537;45.594;9.294;2023-04-24T01:09:04;5.93;;;5.33;;
18818;SDS011;9537;45.594;9.294;2023-04-24T01:10:12;7.20;;;5.37;;
18818;SDS011;9537;45.594;9.294;2023-04-24T01:11:19;7.27;;;5.50;;
18818;SDS011;9537;45.594;9.294;2023-04-24T01:12:27;10.43;;;6.40;;
18818;SDS011;9537;45.594;9.294;2023-04-24T01:13:34;5.87;;;5.27;;
18818;SDS011;9537;45.594;9.294;2023-04-24T01:14:41;6.37;;;5.33;;
18818;SDS011;9537;45.594;9.294;2023-04-24T01:15:48;7.77;;;5.63;;
18818;SDS011;9537;45.594;9.294;2023-04-24T01:16:55;5.77;;;5.17;;
18818;SDS011;9537;45.594;9.294;2023-04-24T01:18:04;7.27;;;5.20;;
18818;SDS011;9537;45.594;9.294;2023-04-24T01:19:11;7.30;;;5.63;;
18818;SDS011;9537;45.594;9.294;2023-04-24T01:20:20;6.60;;;5.20;;
18818;SDS011;9537;45.594;9.294;2023-04-24T01:21:22;5.80;;;5.17;;
18818;SDS011;9537;45.594;9.294;2023-04-24T01:22:34;6.33;;;4.93;;
18818;SDS011;9537;45.594;9.294;2023-04-24T01:23:41;7.40;;;6.07;;
18818;SDS011;9537;45.594;9.294;2023-04-24T01:24:47;8.67;;;5.13;;
18818;SDS011;9537;45.594;9.294;2023-04-24T01:25:54;6.00;;;4.90;;
18818;SDS011;9537;45.594;9.294;2023-04-24T01:27:01;5.93;;;4.87;;
18818;SDS011;9537;45.594;9.294;2023-04-24T01:28:08;6.20;;;5.20;;
18818;SDS011;9537;45.594;9.294;2023-04-24T01:29:14;7.40;;;5.90;;
18818;SDS011;9537;45.594;9.294;2023-04-24T01:30:21;6.27;;;5.47;;
18818;SDS011;9537;45.594;9.294;2023-04-24T01:31:27;6.37;;;5.70;;
18818;SDS011;9537;45.594;9.294;2023-04-24T01:32:35;6.90;;;5.50;;
18818;SDS011;9537;45.594;9.294;2023-04-24T01:33:42;6.83;;;5.10;;
18818;SDS011;9537;45.594;9.294;2023-04-24T01:34:49;6.63;;;5.70;;
18818;SDS011;9537;45.594;9.294;2023-04-24T01:35:51;5.73;;;4.60;;
18818;SDS011;9537;45.594;9.294;2023-04-24T01:36:58;5.83;;;4.50;;
18818;SDS011;9537;45.594;9.294;2023-04-24T01:38:06;5.13;;;4.40;;
18818;SDS011;9537;45.594;9.294;2023-04-24T01:39:13;5.20;;;4.70;;
18818;SDS011;9537;45.594;9.294;2023-04-24T01:40:21;5.07;;;4.60;;
18818;SDS011;9537;45.594;9.294;2023-04-24T01:41:23;5.57;;;4.90;;
18818;SDS011;9537;45.594;9.294;2023-04-24T01:42:29;5.97;;;5.37;;
18818;SDS011;9537;45.594;9.294;2023-04-24T01:43:36;6.63;;;4.90;;
18818;SDS011;9537;45.594;9.294;2023-04-24T01:44:43;7.33;;;4.97;;
18818;SDS011;9537;45.594;9.294;2023-04-24T01:45:50;6.50;;;4.53;;
18818;SDS011;9537;45.594;9.294;2023-04-24T01:46:56;5.77;;;5.20;;
18818;SDS011;9537;45.594;9.294;2023-04-24T01:48:03;5.40;;;4.77;;
18818;SDS011;9537;45.594;9.294;2023-04-24T01:49:09;6.90;;;4.97;;
18818;SDS011;9537;45.594;9.294;2023-04-24T01:50:16;5.97;;;4.80;;
18818;SDS011;9537;45.594;9.294;2023-04-24T01:51:23;5.43;;;4.93;;
18818;SDS011;9537;45.594;9.294;2023-04-24T01:52:29;8.70;;;5.03;;
18818;SDS011;9537;45.594;9.294;2023-04-24T01:53:40;6.53;;;4.57;;
18818;SDS011;9537;45.594;9.294;2023-04-24T01:54:47;7.53;;;5.07;;
18818;SDS011;9537;45.594;9.294;2023-04-24T01:55:53;6.50;;;5.33;;
18818;SDS011;9537;45.594;9.294;2023-04-24T01:57:00;5.60;;;4.37;;
18818;SDS011;9537;45.594;9.294;2023-04-24T01:58:06;8.43;;;5.10;;
18818;SDS011;9537;45.594;9.294;2023-04-24T01:59:13;7.10;;;4.90;;
18818;SDS011;9537;45.594;9.294;2023-04-24T02:00:22;6.50;;;5.03;;
18818;SDS011;9537;45.594;9.294;2023-04-24T02:01:33;5.27;;;4.27;;
18818;SDS011;9537;45.594;9.294;2023-04-24T02:02:41;7.03;;;5.13;;
18818;SDS011;9537;45.594;9.294;2023-04-24T02:03:48;6.33;;;4.87;;
18818;SDS011;9537;45.594;9.294;2023-04-24T02:04:54;5.33;;;4.80;;
18818;SDS011;9537;45.594;9.294;2023-04-24T02:06:01;5.50;;;5.00;;
18818;SDS011;9537;45.594;9.294;2023-04-24T02:07:07;5.90;;;4.87;;
18818;SDS011;9537;45.594;9.294;2023-04-24T02:08:14;5.53;;;4.60;;
18818;SDS011;9537;45.594;9.294;2023-04-24T02:09:21;5.63;;;5.13;;
18818;SDS011;9537;45.594;9.294;2023-04-24T02:10:28;6.30;;;5.07;;
18818;SDS011;9537;45.594;9.294;2023-04-24T02:11:34;7.03;;;5.47;;
18818;SDS011;9537;45.594;9.294;2023-04-24T02:12:41;6.33;;;5.47;;
18818;SDS011;9537;45.594;9.294;2023-04-24T02:13:47;7.07;;;4.90;;
18818;SDS011;9537;45.594;9.294;2023-04-24T02:14:54;6.47;;;5.17;;
18818;SDS011;9537;45.594;9.294;2023-04-24T02:15:59;7.00;;;5.97;;
18818;SDS011;9537;45.594;9.294;2023-04-24T02:17:06;6.23;;;4.93;;
18818;SDS011;9537;45.594;9.294;2023-04-24T02:18:12;6.70;;;4.47;;
18818;SDS011;9537;45.594;9.294;2023-04-24T02:19:20;7.50;;;5.40;;
18818;SDS011;9537;45.594;9.294;2023-04-24T02:20:26;7.47;;;5.20;;
18818;SDS011;9537;45.594;9.294;2023-04-24T02:21:33;6.37;;;5.00;;
18818;SDS011;9537;45.594;9.294;2023-04-24T02:22:39;8.60;;;5.40;;
18818;SDS011;9537;45.594;9.294;2023-04-24T02:23:46;6.90;;;4.90;;
18818;SDS011;9537;45.594;9.294;2023-04-24T02:24:54;7.20;;;4.60;;
18818;SDS011;9537;45.594;9.294;2023-04-24T02:26:01;6.17;;;4.90;;
18818;SDS011;9537;45.594;9.294;2023-04-24T02:27:07;6.37;;;5.00;;
18818;SDS011;9537;45.594;9.294;2023-04-24T02:28:15;5.67;;;4.83;;
18818;SDS011;9537;45.594;9.294;2023-04-24T02:29:22;6.47;;;5.37;;
18818;SDS011;9537;45.594;9.294;2023-04-24T02:30:28;6.93;;;4.53;;
18818;SDS011;9537;45.594;9.294;2023-04-24T02:31:36;5.47;;;4.93;;
18818;SDS011;9537;45.594;9.294;2023-04-24T02:32:42;6.60;;;5.00;;
18818;SDS011;9537;45.594;9.294;2023-04-24T02:33:49;6.20;;;5.20;;
18818;SDS011;9537;45.594;9.294;2023-04-24T02:34:55;7.60;;;5.40;;
18818;SDS011;9537;45.594;9.294;2023-04-24T02:36:01;7.77;;;5.20;;
18818;SDS011;9537;45.594;9.294;2023-04-24T02:37:08;7.17;;;4.90;;
18818;SDS011;9537;45.594;9.294;2023-04-24T02:38:15;8.07;;;5.13;;
18818;SDS011;9537;45.594;9.294;2023-04-24T02:39:20;5.80;;;4.97;;
18818;SDS011;9537;45.594;9.294;2023-04-24T02:40:24;6.53;;;5.47;;
18818;SDS011;9537;45.594;9.294;2023-04-24T02:41:30;7.93;;;5.40;;
18818;SDS011;9537;45.594;9.294;2023-04-24T02:42:37;5.13;;;4.63;;
18818;SDS011;9537;45.594;9.294;2023-04-24T02:43:43;5.13;;;4.63;;
18818;SDS011;9537;45.594;9.294;2023-04-24T02:44:50;6.40;;;5.10;;
18818;SDS011;9537;45.594;9.294;2023-04-24T02:45:57;4.60;;;4.20;;
18818;SDS011;9537;45.594;9.294;2023-04-24T02:47:04;5.17;;;4.67;;
18818;SDS011;9537;45.594;9.294;2023-04-24T02:48:10;5.63;;;4.73;;
18818;SDS011;9537;45.594;9.294;2023-04-24T02:49:17;6.07;;;4.60;;
18818;SDS011;9537;45.594;9.294;2023-04-24T02:50:23;4.83;;;4.33;;
18818;SDS011;9537;45.594;9.294;2023-04-24T02:51:30;5.83;;;4.77;;
18818;SDS011;9537;45.594;9.294;2023-04-24T02:52:37;6.33;;;4.57;;
18818;SDS011;9537;45.594;9.294;2023-04-24T02:53:43;5.30;;;4.60;;
18818;SDS011;9537;45.594;9.294;2023-04-24T02:54:50;6.13;;;4.57;;
18818;SDS011;9537;45.594;9.294;2023-04-24T02:55:57;5.27;;;4.57;;
18818;SDS011;9537;45.594;9.294;2023-04-24T02:57:04;5.00;;;4.43;;
18818;SDS011;9537;45.594;9.294;2023-04-24T02:58:11;5.87;;;4.70;;
18818;SDS011;9537;45.594;9.294;2023-04-24T02:59:18;4.93;;;4.43;;
18818;SDS011;9537;45.594;9.294;2023-04-24T03:00:24;6.27;;;4.80;;
18818;SDS011;9537;45.594;9.294;2023-04-24T03:01:31;6.17;;;4.97;;
18818;SDS011;9537;45.594;9.294;2023-04-24T03:02:37;6.50;;;4.27;;
18818;SDS011;9537;45.594;9.294;2023-04-24T03:03:44;6.60;;;4.70;;
18818;SDS011;9537;45.594;9.294;2023-04-24T03:04:50;6.03;;;4.60;;
18818;SDS011;9537;45.594;9.294;2023-04-24T03:05:57;6.13;;;4.83;;
18818;SDS011;9537;45.594;9.294;2023-04-24T03:07:04;5.67;;;4.63;;
18818;SDS011;9537;45.594;9.294;2023-04-24T03:08:10;7.17;;;5.07;;
18818;SDS011;9537;45.594;9.294;2023-04-24T03:09:16;6.47;;;5.10;;
18818;SDS011;9537;45.594;9.294;2023-04-24T03:10:23;6.10;;;4.87;;
18818;SDS011;9537;45.594;9.294;2023-04-24T03:11:31;6.80;;;5.00;;
18818;SDS011;9537;45.594;9.294;2023-04-24T03:12:38;6.33;;;5.07;;
18818;SDS011;9537;45.594;9.294;2023-04-24T03:13:44;6.97;;;5.60;;
18818;SDS011;9537;45.594;9.294;2023-04-24T03:14:51;5.47;;;4.60;;
18818;SDS011;9537;45.594;9.294;2023-04-24T03:15:57;6.37;;;5.57;;
18818;SDS011;9537;45.594;9.294;2023-04-24T03:17:04;5.33;;;4.83;;
18818;SDS011;9537;45.594;9.294;2023-04-24T03:18:10;5.10;;;4.70;;
18818;SDS011;9537;45.594;9.294;2023-04-24T03:19:17;5.63;;;4.73;;
18818;SDS011;9537;45.594;9.294;2023-04-24T03:20:24;5.80;;;4.67;;
18818;SDS011;9537;45.594;9.294;2023-04-24T03:21:31;4.70;;;4.30;;
18818;SDS011;9537;45.594;9.294;2023-04-24T03:22:38;5.57;;;4.53;;
18818;SDS011;9537;45.594;9.294;2023-04-24T03:23:43;5.97;;;4.40;;
18818;SDS011;9537;45.594;9.294;2023-04-24T03:24:50;5.80;;;4.70;;
18818;SDS011;9537;45.594;9.294;2023-04-24T03:25:52;5.37;;;4.87;;
18818;SDS011;9537;45.594;9.294;2023-04-24T03:27:01;7.33;;;4.77;;
18818;SDS011;9537;45.594;9.294;2023-04-24T03:28:07;5.70;;;5.10;;
18818;SDS011;9537;45.594;9.294;2023-04-24T03:29:14;5.67;;;4.60;;
18818;SDS011;9537;45.594;9.294;2023-04-24T03:30:20;5.80;;;5.20;;
18818;SDS011;9537;45.594;9.294;2023-04-24T03:31:27;5.33;;;4.83;;
18818;SDS011;9537;45.594;9.294;2023-04-24T03:32:34;7.13;;;5.23;;
18818;SDS011;9537;45.594;9.294;2023-04-24T03:33:41;5.23;;;4.73;;
18818;SDS011;9537;45.594;9.294;2023-04-24T03:34:48;5.10;;;4.57;;
18818;SDS011;9537;45.594;9.294;2023-04-24T03:35:55;4.80;;;4.30;;
18818;SDS011;9537;45.594;9.294;2023-04-24T03:37:02;5.27;;;4.77;;
18818;SDS011;9537;45.594;9.294;2023-04-24T03:38:09;5.03;;;4.53;;
18818;SDS011;9537;45.594;9.294;2023-04-24T03:39:16;4.63;;;4.23;;
18818;SDS011;9537;45.594;9.294;2023-04-24T03:40:23;5.90;;;4.83;;
18818;SDS011;9537;45.594;9.294;2023-04-24T03:41:29;5.20;;;4.70;;
18818;SDS011;9537;45.594;9.294;2023-04-24T03:42:37;6.47;;;4.97;;
18818;SDS011;9537;45.594;9.294;2023-04-24T03:43:43;5.57;;;4.40;;
18818;SDS011;9537;45.594;9.294;2023-04-24T03:44:50;4.43;;;4.03;;
18818;SDS011;9537;45.594;9.294;2023-04-24T03:45:56;5.03;;;4.53;;
18818;SDS011;9537;45.594;9.294;2023-04-24T03:46:58;4.60;;;4.17;;
18818;SDS011;9537;45.594;9.294;2023-04-24T03:48:04;5.30;;;4.30;;
18818;SDS011;9537;45.594;9.294;2023-04-24T03:49:11;5.00;;;4.50;;
18818;SDS011;9537;45.594;9.294;2023-04-24T03:50:17;4.67;;;4.27;;
18818;SDS011;9537;45.594;9.294;2023-04-24T03:51:24;5.50;;;5.00;;
18818;SDS011;9537;45.594;9.294;2023-04-24T03:52:25;5.57;;;4.50;;
18818;SDS011;9537;45.594;9.294;2023-04-24T03:53:32;4.23;;;3.83;;
18818;SDS011;9537;45.594;9.294;2023-04-24T03:54:38;4.27;;;3.87;;
18818;SDS011;9537;45.594;9.294;2023-04-24T03:55:45;3.90;;;3.50;;
18818;SDS011;9537;45.594;9.294;2023-04-24T03:56:51;3.80;;;3.50;;
18818;SDS011;9537;45.594;9.294;2023-04-24T03:57:59;4.67;;;2.97;;
18818;SDS011;9537;45.594;9.294;2023-04-24T03:59:06;4.23;;;3.60;;
18818;SDS011;9537;45.594;9.294;2023-04-24T04:00:13;4.23;;;3.83;;
18818;SDS011;9537;45.594;9.294;2023-04-24T04:01:19;4.80;;;4.20;;
18818;SDS011;9537;45.594;9.294;2023-04-24T04:02:27;3.97;;;3.67;;
18818;SDS011;9537;45.594;9.294;2023-04-24T04:03:32;3.80;;;3.50;;
18818;SDS011;9537;45.594;9.294;2023-04-24T04:04:40;3.93;;;3.57;;
18818;SDS011;9537;45.594;9.294;2023-04-24T04:05:46;4.10;;;3.70;;
18818;SDS011;9537;45.594;9.294;2023-04-24T04:06:53;4.40;;;4.00;;
18818;SDS011;9537;45.594;9.294;2023-04-24T04:07:59;4.03;;;3.63;;
18818;SDS011;9537;45.594;9.294;2023-04-24T04:09:06;3.97;;;3.67;;
18818;SDS011;9537;45.594;9.294;2023-04-24T04:10:12;3.90;;;3.60;;
18818;SDS011;9537;45.594;9.294;2023-04-24T04:11:19;6.40;;;4.20;;
18818;SDS011;9537;45.594;9.294;2023-04-24T04:12:25;4.83;;;4.40;;
18818;SDS011;9537;45.594;9.294;2023-04-24T04:13:33;4.30;;;3.90;;
18818;SDS011;9537;45.594;9.294;2023-04-24T04:14:39;4.33;;;3.93;;
18818;SDS011;9537;45.594;9.294;2023-04-24T04:15:46;3.87;;;3.47;;
18818;SDS011;9537;45.594;9.294;2023-04-24T04:16:53;3.67;;;3.37;;
18818;SDS011;9537;45.594;9.294;2023-04-24T04:18:00;6.70;;;3.90;;
18818;SDS011;9537;45.594;9.294;2023-04-24T04:19:06;3.77;;;3.47;;
18818;SDS011;9537;45.594;9.294;2023-04-24T04:20:13;3.57;;;3.27;;
18818;SDS011;9537;45.594;9.294;2023-04-24T04:21:19;3.77;;;3.47;;
18818;SDS011;9537;45.594;9.294;2023-04-24T04:22:26;4.17;;;3.70;;
18818;SDS011;9537;45.594;9.294;2023-04-24T04:23:32;3.60;;;3.30;;
18818;SDS011;9537;45.594;9.294;2023-04-24T04:24:39;3.33;;;3.07;;
18818;SDS011;9537;45.594;9.294;2023-04-24T04:25:45;3.37;;;3.13;;
18818;SDS011;9537;45.594;9.294;2023-04-24T04:26:53;3.43;;;3.10;;
18818;SDS011;9537;45.594;9.294;2023-04-24T04:28:01;3.57;;;3.27;;
18818;SDS011;9537;45.594;9.294;2023-04-24T04:29:10;3.37;;;3.07;;
18818;SDS011;9537;45.594;9.294;2023-04-24T04:30:16;3.57;;;3.03;;
18818;SDS011;9537;45.594;9.294;2023-04-24T04:31:23;3.00;;;2.80;;
18818;SDS011;9537;45.594;9.294;2023-04-24T04:32:30;3.17;;;2.83;;
18818;SDS011;9537;45.594;9.294;2023-04-24T04:33:38;2.90;;;2.70;;
18818;SDS011;9537;45.594;9.294;2023-04-24T04:34:45;2.90;;;2.70;;
18818;SDS011;9537;45.594;9.294;2023-04-24T04:35:52;3.10;;;2.80;;
18818;SDS011;9537;45.594;9.294;2023-04-24T04:36:58;3.17;;;2.87;;
18818;SDS011;9537;45.594;9.294;2023-04-24T04:38:07;3.50;;;2.83;;
18818;SDS011;9537;45.594;9.294;2023-04-24T04:39:13;3.20;;;2.90;;
18818;SDS011;9537;45.594;9.294;2023-04-24T04:40:21;3.77;;;3.30;;
18818;SDS011;9537;45.594;9.294;2023-04-24T04:41:27;3.90;;;3.50;;
18818;SDS011;9537;45.594;9.294;2023-04-24T04:42:35;3.97;;;3.20;;
18818;SDS011;9537;45.594;9.294;2023-04-24T04:43:45;3.20;;;2.90;;
18818;SDS011;9537;45.594;9.294;2023-04-24T04:44:54;3.10;;;2.80;;
18818;SDS011;9537;45.594;9.294;2023-04-24T04:45:57;3.93;;;3.10;;
18818;SDS011;9537;45.594;9.294;2023-04-24T04:48:52;4.37;;;2.80;;
18818;SDS011;9537;45.594;9.294;2023-04-24T04:49:59;3.17;;;2.90;;
18818;SDS011;9537;45.594;9.294;2023-04-24T04:51:05;3.27;;;2.97;;
18818;SDS011;9537;45.594;9.294;2023-04-24T04:52:12;3.50;;;2.97;;
18818;SDS011;9537;45.594;9.294;2023-04-24T04:53:18;3.57;;;2.70;;
18818;SDS011;9537;45.594;9.294;2023-04-24T04:54:25;2.90;;;2.60;;
18818;SDS011;9537;45.594;9.294;2023-04-24T04:55:32;3.17;;;2.87;;
18818;SDS011;9537;45.594;9.294;2023-04-24T04:56:38;2.80;;;2.60;;
18818;SDS011;9537;45.594;9.294;2023-04-24T04:57:40;2.80;;;2.60;;
18818;SDS011;9537;45.594;9.294;2023-04-24T04:58:46;3.23;;;2.93;;
18818;SDS011;9537;45.594;9.294;2023-04-24T04:59:54;3.37;;;3.07;;
18818;SDS011;9537;45.594;9.294;2023-04-24T05:01:00;2.90;;;2.70;;
18818;SDS011;9537;45.594;9.294;2023-04-24T05:02:07;2.93;;;2.70;;
18818;SDS011;9537;45.594;9.294;2023-04-24T05:03:14;3.40;;;3.10;;
18818;SDS011;9537;45.594;9.294;2023-04-24T05:04:20;2.67;;;2.47;;
18818;SDS011;9537;45.594;9.294;2023-04-24T05:05:26;2.57;;;2.37;;
18818;SDS011;9537;45.594;9.294;2023-04-24T05:06:34;2.63;;;2.43;;
18818;SDS011;9537;45.594;9.294;2023-04-24T05:07:40;2.50;;;2.30;;
18818;SDS011;9537;45.594;9.294;2023-04-24T05:08:42;2.60;;;2.40;;
18818;SDS011;9537;45.594;9.294;2023-04-24T05:09:48;2.43;;;2.23;;
18818;SDS011;9537;45.594;9.294;2023-04-24T05:10:56;3.10;;;2.70;;
18818;SDS011;9537;45.594;9.294;2023-04-24T05:12:04;2.80;;;2.60;;
18818;SDS011;9537;45.594;9.294;2023-04-24T05:13:05;3.00;;;2.70;;
18818;SDS011;9537;45.594;9.294;2023-04-24T05:14:11;2.30;;;2.10;;
18818;SDS011;9537;45.594;9.294;2023-04-24T05:15:19;3.50;;;3.20;;
18818;SDS011;9537;45.594;9.294;2023-04-24T05:16:26;3.10;;;2.90;;
18818;SDS011;9537;45.594;9.294;2023-04-24T05:17:32;3.73;;;2.90;;
18818;SDS011;9537;45.594;9.294;2023-04-24T05:18:38;2.83;;;2.53;;
18818;SDS011;9537;45.594;9.294;2023-04-24T05:19:45;2.43;;;2.23;;
18818;SDS011;9537;45.594;9.294;2023-04-24T05:20:51;2.00;;;1.90;;
18818;SDS011;9537;45.594;9.294;2023-04-24T05:21:58;2.43;;;2.23;;
18818;SDS011;9537;45.594;9.294;2023-04-24T05:23:04;2.83;;;2.63;;
18818;SDS011;9537;45.594;9.294;2023-04-24T05:24:11;3.37;;;2.20;;
18818;SDS011;9537;45.594;9.294;2023-04-24T05:25:17;2.63;;;2.43;;
18818;SDS011;9537;45.594;9.294;2023-04-24T05:26:25;2.80;;;2.60;;
18818;SDS011;9537;45.594;9.294;2023-04-24T05:27:30;4.30;;;2.60;;
18818;SDS011;9537;45.594;9.294;2023-04-24T05:28:37;2.73;;;2.53;;
18818;SDS011;9537;45.594;9.294;2023-04-24T05:29:43;2.70;;;2.50;;
18818;SDS011;9537;45.594;9.294;2023-04-24T05:30:52;2.87;;;2.47;;
18818;SDS011;9537;45.594;9.294;2023-04-24T05:31:58;2.80;;;2.60;;
18818;SDS011;9537;45.594;9.294;2023-04-24T05:33:05;2.63;;;2.43;;
18818;SDS011;9537;45.594;9.294;2023-04-24T05:34:11;2.97;;;2.67;;
18818;SDS011;9537;45.594;9.294;2023-04-24T05:35:19;2.70;;;2.50;;
18818;SDS011;9537;45.594;9.294;2023-04-24T05:36:26;3.23;;;2.87;;
18818;SDS011;9537;45.594;9.294;2023-04-24T05:37:32;2.70;;;2.50;;
18818;SDS011;9537;45.594;9.294;2023-04-24T05:38:39;2.67;;;2.47;;
18818;SDS011;9537;45.594;9.294;2023-04-24T05:39:45;2.97;;;2.77;;
18818;SDS011;9537;45.594;9.294;2023-04-24T05:40:52;3.00;;;2.70;;
18818;SDS011;9537;45.594;9.294;2023-04-24T05:41:58;2.53;;;2.30;;
18818;SDS011;9537;45.594;9.294;2023-04-24T05:43:06;2.47;;;2.27;;
18818;SDS011;9537;45.594;9.294;2023-04-24T05:44:12;2.97;;;2.50;;
18818;SDS011;9537;45.594;9.294;2023-04-24T05:45:19;2.30;;;2.10;;
18818;SDS011;9537;45.594;9.294;2023-04-24T05:46:27;3.33;;;2.40;;
18818;SDS011;9537;45.594;9.294;2023-04-24T05:47:34;2.17;;;1.97;;
18818;SDS011;9537;45.594;9.294;2023-04-24T05:48:41;2.97;;;2.20;;
18818;SDS011;9537;45.594;9.294;2023-04-24T05:49:47;2.50;;;2.30;;
18818;SDS011;9537;45.594;9.294;2023-04-24T05:50:54;2.40;;;2.20;;
18818;SDS011;9537;45.594;9.294;2023-04-24T05:52:00;2.00;;;1.90;;
18818;SDS011;9537;45.594;9.294;2023-04-24T05:53:09;2.00;;;1.90;;
18818;SDS011;9537;45.594;9.294;2023-04-24T05:54:15;3.50;;;2.10;;
18818;SDS011;9537;45.594;9.294;2023-04-24T05:55:22;2.10;;;1.90;;
18818;SDS011;9537;45.594;9.294;2023-04-24T05:56:28;4.13;;;2.33;;
18818;SDS011;9537;45.594;9.294;2023-04-24T05:57:36;2.90;;;2.20;;
18818;SDS011;9537;45.594;9.294;2023-04-24T05:58:43;2.40;;;2.20;;
18818;SDS011;9537;45.594;9.294;2023-04-24T05:59:49;2.17;;;2.03;;
18818;SDS011;9537;45.594;9.294;2023-04-24T06:00:56;1.80;;;1.70;;
18818;SDS011;9537;45.594;9.294;2023-04-24T06:02:05;2.93;;;2.10;;
18818;SDS011;9537;45.594;9.294;2023-04-24T06:03:07;2.37;;;2.13;;
18818;SDS011;9537;45.594;9.294;2023-04-24T06:04:14;2.63;;;2.07;;
18818;SDS011;9537;45.594;9.294;2023-04-24T06:05:21;2.20;;;2.00;;
18818;SDS011;9537;45.594;9.294;2023-04-24T06:06:28;1.80;;;1.70;;
18818;SDS011;9537;45.594;9.294;2023-04-24T06:07:35;1.83;;;1.73;;
18818;SDS011;9537;45.594;9.294;2023-04-24T06:08:42;2.40;;;2.00;;
18818;SDS011;9537;45.594;9.294;2023-04-24T06:09:49;2.13;;;1.93;;
18818;SDS011;9537;45.594;9.294;2023-04-24T06:10:56;2.13;;;1.93;;
18818;SDS011;9537;45.594;9.294;2023-04-24T06:11:58;2.30;;;2.10;;
18818;SDS011;9537;45.594;9.294;2023-04-24T06:13:05;2.00;;;1.80;;
18818;SDS011;9537;45.594;9.294;2023-04-24T06:14:12;2.50;;;2.30;;
18818;SDS011;9537;45.594;9.294;2023-04-24T06:15:18;2.57;;;2.13;;
18818;SDS011;9537;45.594;9.294;2023-04-24T06:16:25;2.40;;;2.20;;
18818;SDS011;9537;45.594;9.294;2023-04-24T06:17:32;2.30;;;2.10;;
18818;SDS011;9537;45.594;9.294;2023-04-24T06:18:39;1.90;;;1.80;;
18818;SDS011;9537;45.594;9.294;2023-04-24T06:19:45;2.53;;;1.93;;
18818;SDS011;9537;45.594;9.294;2023-04-24T06:20:52;3.13;;;1.90;;
18818;SDS011;9537;45.594;9.294;2023-04-24T06:22:00;3.50;;;1.83;;
18818;SDS011;9537;45.594;9.294;2023-04-24T06:23:06;2.10;;;1.90;;
18818;SDS011;9537;45.594;9.294;2023-04-24T06:24:13;1.80;;;1.60;;
18818;SDS011;9537;45.594;9.294;2023-04-24T06:25:21;2.50;;;1.80;;
18818;SDS011;9537;45.594;9.294;2023-04-24T06:26:28;2.60;;;2.03;;
18818;SDS011;9537;45.594;9.294;2023-04-24T06:27:35;1.73;;;1.57;;
18818;SDS011;9537;45.594;9.294;2023-04-24T06:28:42;2.90;;;1.70;;
18818;SDS011;9537;45.594;9.294;2023-04-24T06:29:43;4.47;;;1.90;;
18818;SDS011;9537;45.594;9.294;2023-04-24T06:30:50;3.20;;;1.60;;
18818;SDS011;9537;45.594;9.294;2023-04-24T06:31:57;2.17;;;1.87;;
18818;SDS011;9537;45.594;9.294;2023-04-24T06:33:05;3.10;;;1.60;;
18818;SDS011;9537;45.594;9.294;2023-04-24T06:34:11;1.70;;;1.57;;
18818;SDS011;9537;45.594;9.294;2023-04-24T06:35:14;2.00;;;1.80;;
18818;SDS011;9537;45.594;9.294;2023-04-24T06:36:20;3.07;;;1.80;;
18818;SDS011;9537;45.594;9.294;2023-04-24T06:37:27;2.13;;;1.67;;
18818;SDS011;9537;45.594;9.294;2023-04-24T06:38:33;1.80;;;1.70;;
18818;SDS011;9537;45.594;9.294;2023-04-24T06:39:41;1.60;;;1.50;;
18818;SDS011;9537;45.594;9.294;2023-04-24T06:40:48;3.20;;;1.80;;
18818;SDS011;9537;45.594;9.294;2023-04-24T06:41:55;1.93;;;1.60;;
18818;SDS011;9537;45.594;9.294;2023-04-24T06:42:56;3.20;;;1.73;;
18818;SDS011;9537;45.594;9.294;2023-04-24T06:44:05;3.63;;;1.53;;
18818;SDS011;9537;45.594;9.294;2023-04-24T06:45:12;1.60;;;1.50;;
18818;SDS011;9537;45.594;9.294;2023-04-24T06:46:19;4.00;;;2.13;;
18818;SDS011;9537;45.594;9.294;2023-04-24T06:47:27;3.17;;;1.40;;
18818;SDS011;9537;45.594;9.294;2023-04-24T06:48:34;2.10;;;1.43;;
18818;SDS011;9537;45.594;9.294;2023-04-24T06:49:41;2.43;;;1.60;;